Weather at Kambuaya Airport

Public forecast

Using degrees Celsius for public forecast. Weather courtesy of forecast.io.

Closest aviation weather report (METAR) to Kambuaya Airport

Closest report is Frans Kaisiepo Airport, 229.5 nm (425.0 km) E. Retrieved 2022/01/18 07:00 UTC (13 minutes ago):

WABB 180700Z 35004KT 180V350 9999 -RA SCT018 BKN100 27/25 Q1006 NOSIG

Closest aviation forecast (TAF) to Kambuaya Airport

Closest forecast is Rendani Airport, 108.8 nm (201.5 km) ENE. Retrieved UTC (0 seconds ago):